Terminal Aerodrome Forecast
Issued by NWS Greer, SC

Home | Current Version | Previous Version | Text Only | Print | Product List | Glossary On
Versions: 1 2 3 4 5 6 7 8 9 10 11 12
108
FTUS42 KGSP 221731
TAFGSP
TAF
KGSP 221731Z 2218/2318 21010KT P6SM SCT050 BKN250
     FM230200 22004KT P6SM SCT060 BKN250
     FM231600 23007KT P6SM SCT050 BKN250=

USA.gov is the U.S. government's official web portal to all federal, state and local government web resources and services.